Time;durP1;ratioP1;P1;durP2;ratioP2;P2;SDS_P1;SDS_P2;PMS_P1;PMS_P2;Temp;Humidity;BMP_temperature;BMP_pressure;BME280_temperature;BME280_humidity;BME280_pressure;Samples;Min_cycle;Max_cycle;Signal;HPM_P1;HPM_P2
2023/08/26 00:00:32;;;;;;;14.60;10.75;;;20.70;80.80;;;;;;5024911;28;20039;-66
2023/08/26 00:02:57;;;;;;;15.43;11.55;;;20.70;80.70;;;;;;5034161;28;20040;-66
2023/08/26 00:05:23;;;;;;;14.80;10.60;;;20.70;80.70;;;;;;5025882;28;20041;-66
2023/08/26 00:07:49;;;;;;;15.30;11.05;;;20.70;80.60;;;;;;5035343;28;20045;-66
2023/08/26 00:10:15;;;;;;;15.85;10.90;;;20.60;80.60;;;;;;5027299;28;20106;-66
2023/08/26 00:12:40;;;;;;;13.25;10.05;;;20.60;80.60;;;;;;5031867;28;20033;-66
2023/08/26 00:15:07;;;;;;;15.20;11.27;;;20.60;81.20;;;;;;5013826;28;20415;-66
2023/08/26 00:17:33;;;;;;;15.90;9.95;;;20.60;80.50;;;;;;5021152;28;20045;-66
2023/08/26 00:19:59;;;;;;;14.70;10.07;;;20.60;81.20;;;;;;5017641;28;20045;-67
2023/08/26 00:22:25;;;;;;;14.35;10.30;;;20.60;80.60;;;;;;5012751;28;20037;-66
2023/08/26 00:24:51;;;;;;;12.75;9.23;;;20.60;80.50;;;;;;5017253;28;20091;-66
2023/08/26 00:27:17;;;;;;;11.32;8.70;;;20.50;80.40;;;;;;5046986;28;20439;-67
2023/08/26 00:29:44;;;;;;;11.80;8.35;;;20.50;80.30;;;;;;5028026;28;20034;-66
2023/08/26 00:32:10;;;;;;;12.13;8.73;;;20.50;80.30;;;;;;5024373;28;20029;-66
2023/08/26 00:34:35;;;;;;;12.75;8.43;;;20.50;80.30;;;;;;5027881;28;20089;-66
2023/08/26 00:37:01;;;;;;;12.38;7.72;;;20.50;80.20;;;;;;5059290;28;20056;-66
2023/08/26 00:39:27;;;;;;;13.20;7.93;;;20.50;80.10;;;;;;5020025;28;20029;-66
2023/08/26 00:41:52;;;;;;;10.32;7.40;;;20.50;80.00;;;;;;5026094;28;20199;-66
2023/08/26 00:44:18;;;;;;;9.38;6.18;;;20.50;80.00;;;;;;5034326;28;20113;-66
2023/08/26 00:46:45;;;;;;;11.60;6.55;;;20.50;80.00;;;;;;5033964;28;20470;-66
2023/08/26 00:49:11;;;;;;;10.98;7.00;;;20.50;79.90;;;;;;5058301;28;20032;-66
2023/08/26 00:51:38;;;;;;;11.00;6.25;;;20.40;79.80;;;;;;5009612;28;20036;-66
2023/08/26 00:54:07;;;;;;;11.20;6.53;;;20.40;79.70;;;;;;5033739;28;20025;-66
2023/08/26 00:56:33;;;;;;;13.25;5.75;;;20.40;79.70;;;;;;5034087;28;20033;-66
2023/08/26 00:59:01;;;;;;;8.57;5.10;;;20.40;79.60;;;;;;5013074;28;20091;-66
2023/08/26 01:01:33;;;;;;;10.93;5.70;;;20.30;79.50;;;;;;5024360;28;20470;-66
2023/08/26 01:03:58;;;;;;;;;;;20.30;79.40;;;;;;5000984;28;20363;-66
2023/08/26 01:10:12;;;;;;;9.80;4.95;;;20.20;79.40;;;;;;5028098;28;20059;-66
2023/08/26 01:12:52;;;;;;;9.57;5.00;;;20.20;79.40;;;;;;5023957;28;20411;-66
2023/08/26 01:15:20;;;;;;;12.43;5.53;;;20.20;79.40;;;;;;5037046;28;20032;-66
2023/08/26 01:17:46;;;;;;;8.18;4.93;;;20.10;79.40;;;;;;5027320;28;20047;-66
2023/08/26 01:20:14;;;;;;;10.93;5.70;;;20.10;79.40;;;;;;5025417;28;20039;-66
2023/08/26 01:22:44;;;;;;;10.13;6.57;;;20.10;79.40;;;;;;5023788;28;20025;-66
2023/08/26 01:25:09;;;;;;;11.65;6.15;;;20.20;79.40;;;;;;5016017;28;20021;-66
2023/08/26 01:27:35;;;;;;;12.50;7.05;;;20.10;79.40;;;;;;5006523;28;20025;-66
2023/08/26 01:30:01;;;;;;;12.55;7.18;;;20.20;79.60;;;;;;5031906;28;21217;-66
2023/08/26 01:32:54;;;;;;;10.43;7.30;;;20.20;79.60;;;;;;5027206;28;20030;-66
2023/08/26 01:35:28;;;;;;;9.65;6.35;;;20.20;79.50;;;;;;5033226;28;20022;-66
2023/08/26 01:37:54;;;;;;;9.30;6.03;;;20.20;79.50;;;;;;5031192;28;20132;-66
2023/08/26 01:40:21;;;;;;;9.48;5.60;;;20.10;79.40;;;;;;5026604;28;20453;-67
2023/08/26 01:42:48;;;;;;;11.07;5.97;;;20.20;79.40;;;;;;5022248;28;20045;-66
2023/08/26 01:45:14;;;;;;;11.85;5.28;;;20.20;79.30;;;;;;5031997;28;20072;-66
2023/08/26 01:47:41;;;;;;;9.90;5.75;;;20.20;79.20;;;;;;5039878;28;20029;-66
2023/08/26 01:50:06;;;;;;;13.02;5.97;;;20.20;79.20;;;;;;5032640;28;20033;-66
2023/08/26 01:52:32;;;;;;;10.43;5.50;;;20.10;79.20;;;;;;5010004;28;20029;-66
2023/08/26 01:54:58;;;;;;;9.95;5.40;;;20.10;79.20;;;;;;5065503;28;20021;-66
2023/08/26 01:57:24;;;;;;;12.23;5.72;;;20.10;79.10;;;;;;5034125;28;20416;-66
2023/08/26 01:59:50;;;;;;;11.27;6.63;;;20.10;79.20;;;;;;5048460;28;20021;-66
2023/08/26 02:02:16;;;;;;;11.10;7.10;;;20.10;79.20;;;;;;5007294;28;20117;-66
2023/08/26 02:04:42;;;;;;;12.02;6.32;;;20.10;79.50;;;;;;5028259;28;20363;-66
2023/08/26 02:07:09;;;;;;;12.20;7.53;;;20.10;79.60;;;;;;5032897;28;20030;-66
2023/08/26 02:09:35;;;;;;;12.07;7.18;;;20.10;79.80;;;;;;5026089;28;20060;-66
2023/08/26 02:12:00;;;;;;;10.77;7.65;;;20.00;79.90;;;;;;5018039;28;20135;-66
2023/08/26 02:14:26;;;;;;;13.82;7.63;;;20.00;79.90;;;;;;5024248;28;20419;-66
2023/08/26 02:16:52;;;;;;;11.32;7.35;;;20.00;79.80;;;;;;5038813;28;20034;-66
2023/08/26 02:19:18;;;;;;;12.02;7.75;;;20.00;79.80;;;;;;5032329;28;20048;-66
2023/08/26 02:21:44;;;;;;;11.43;7.97;;;19.90;79.70;;;;;;5035779;28;20042;-66
2023/08/26 02:24:10;;;;;;;12.40;6.85;;;19.90;79.60;;;;;;5034606;28;20465;-66
2023/08/26 02:26:36;;;;;;;11.23;6.97;;;19.90;79.50;;;;;;5035997;28;20026;-66
2023/08/26 02:29:03;;;;;;;12.55;6.93;;;19.80;79.20;;;;;;5067133;28;20040;-66
2023/08/26 02:31:28;;;;;;;10.40;6.25;;;19.80;79.00;;;;;;5020782;28;20362;-66
2023/08/26 02:33:54;;;;;;;16.58;6.70;;;19.70;78.90;;;;;;5031716;28;20021;-66
2023/08/26 02:36:20;;;;;;;9.95;5.75;;;19.70;78.90;;;;;;5035027;28;20406;-66
2023/08/26 02:38:47;;;;;;;11.05;6.32;;;19.70;78.90;;;;;;5029202;28;20453;-66
2023/08/26 02:41:13;;;;;;;11.73;5.93;;;19.60;78.70;;;;;;5065609;28;20371;-66
2023/08/26 02:43:38;;;;;;;10.65;5.90;;;19.60;78.70;;;;;;5029511;28;20024;-66
2023/08/26 02:46:05;;;;;;;10.15;5.57;;;19.60;78.60;;;;;;5035425;28;20033;-66
2023/08/26 02:48:30;;;;;;;9.13;5.57;;;19.50;78.40;;;;;;5029685;28;20029;-66
2023/08/26 02:51:00;;;;;;;9.77;5.80;;;19.50;78.20;;;;;;5034422;28;20021;-66
2023/08/26 02:53:29;;;;;;;9.32;4.60;;;19.40;78.10;;;;;;5054149;28;20362;-66
2023/08/26 02:55:56;;;;;;;10.77;4.95;;;19.40;78.10;;;;;;5034076;28;20090;-66
2023/08/26 02:58:23;;;;;;;10.70;4.75;;;19.40;78.60;;;;;;5038287;28;20512;-66
2023/08/26 03:00:49;;;;;;;9.85;5.50;;;19.40;77.90;;;;;;5049799;28;20099;-66
2023/08/26 03:03:15;;;;;;;11.23;5.07;;;19.30;77.70;;;;;;5036410;28;20109;-66
2023/08/26 03:05:41;;;;;;;10.27;5.13;;;19.20;77.60;;;;;;5068451;28;20081;-66
2023/08/26 03:08:07;;;;;;;9.30;5.15;;;19.20;77.60;;;;;;5030328;28;20105;-66
2023/08/26 03:10:33;;;;;;;11.13;5.13;;;19.20;77.70;;;;;;5015373;28;20046;-66
2023/08/26 03:12:59;;;;;;;8.75;5.35;;;19.20;77.70;;;;;;5034664;28;20100;-66
2023/08/26 03:15:29;;;;;;;9.05;4.88;;;19.20;77.70;;;;;;5036121;28;20033;-66
2023/08/26 03:17:56;;;;;;;8.93;5.20;;;19.10;77.80;;;;;;5036281;28;20080;-66
2023/08/26 03:20:23;;;;;;;10.55;5.47;;;19.10;77.90;;;;;;5032097;28;20025;-66
2023/08/26 03:22:49;;;;;;;9.45;5.00;;;19.10;77.70;;;;;;5028085;28;20071;-66
2023/08/26 03:25:16;;;;;;;11.27;5.45;;;19.10;77.70;;;;;;5031042;28;20103;-66
2023/08/26 03:27:41;;;;;;;9.60;4.93;;;19.00;77.70;;;;;;5027995;28;20030;-66
2023/08/26 03:30:08;;;;;;;9.15;4.40;;;19.00;77.60;;;;;;5021990;28;20030;-66
2023/08/26 03:32:33;;;;;;;8.95;4.53;;;19.00;77.50;;;;;;5033496;28;20045;-66
2023/08/26 03:35:00;;;;;;;9.00;4.78;;;19.00;77.40;;;;;;5025876;28;20030;-66
2023/08/26 03:37:26;;;;;;;8.98;4.60;;;19.00;77.20;;;;;;5019615;28;20059;-66
2023/08/26 03:39:51;;;;;;;8.32;4.30;;;19.00;77.20;;;;;;5018684;28;20028;-66
2023/08/26 03:42:17;;;;;;;8.93;4.80;;;19.00;77.10;;;;;;5016208;28;20435;-66
2023/08/26 03:44:43;;;;;;;7.50;4.10;;;19.00;77.00;;;;;;5014126;28;20478;-66
2023/08/26 03:47:09;;;;;;;9.30;4.35;;;18.90;77.00;;;;;;5018382;28;20021;-66
2023/08/26 03:49:35;;;;;;;8.82;4.32;;;18.90;76.90;;;;;;5016313;28;20617;-66
2023/08/26 03:52:00;;;;;;;9.55;4.28;;;18.90;76.90;;;;;;5015943;28;20478;-66
2023/08/26 03:54:26;;;;;;;9.27;4.30;;;18.90;76.90;;;;;;5016816;28;20036;-66
2023/08/26 03:56:52;;;;;;;8.55;4.07;;;18.80;76.80;;;;;;5013075;28;20022;-66
2023/08/26 03:59:18;;;;;;;7.80;4.55;;;18.70;76.70;;;;;;5016985;28;20523;-66
2023/08/26 04:01:45;;;;;;;10.07;4.25;;;18.70;76.60;;;;;;5014523;28;20046;-66
2023/08/26 04:04:11;;;;;;;9.70;4.68;;;18.70;76.60;;;;;;5027438;28;20079;-66
2023/08/26 04:06:38;;;;;;;8.73;4.13;;;18.60;76.50;;;;;;5012831;28;20403;-66
2023/08/26 04:09:04;;;;;;;9.52;5.05;;;18.60;75.90;;;;;;5049256;28;20041;-66
2023/08/26 04:11:30;;;;;;;9.77;4.63;;;18.50;76.30;;;;;;5032752;28;20029;-66
2023/08/26 04:13:56;;;;;;;7.60;3.92;;;18.50;76.20;;;;;;5026183;28;20112;-66
2023/08/26 04:16:22;;;;;;;8.25;3.60;;;18.40;76.30;;;;;;5012903;28;20030;-66
2023/08/26 04:18:48;;;;;;;9.93;4.10;;;18.40;76.20;;;;;;5031543;28;20017;-67
2023/08/26 04:21:15;;;;;;;8.23;3.63;;;18.40;76.20;;;;;;5019394;28;20022;-65
2023/08/26 04:23:41;;;;;;;7.70;4.00;;;18.30;76.20;;;;;;5021066;28;20081;-66
2023/08/26 04:26:06;;;;;;;7.80;3.90;;;18.30;76.20;;;;;;5022779;28;20034;-66
2023/08/26 04:28:32;;;;;;;8.70;3.60;;;18.30;76.20;;;;;;5021794;28;20033;-66
2023/08/26 04:31:01;;;;;;;8.15;3.50;;;18.20;76.10;;;;;;5035753;28;20049;-66
2023/08/26 04:33:27;;;;;;;9.13;3.63;;;18.20;76.10;;;;;;5042824;28;20112;-66
2023/08/26 04:35:53;;;;;;;10.95;4.10;;;18.20;76.10;;;;;;5033238;28;20116;-66
2023/08/26 04:38:20;;;;;;;7.03;3.20;;;18.20;76.10;;;;;;5046473;28;20025;-66
2023/08/26 04:40:46;;;;;;;8.38;3.55;;;18.20;76.00;;;;;;5039689;28;20029;-66
2023/08/26 04:43:12;;;;;;;6.13;3.00;;;18.20;75.90;;;;;;5038247;28;20018;-66
2023/08/26 04:45:39;;;;;;;6.90;3.08;;;18.20;76.00;;;;;;5014246;28;20052;-66
2023/08/26 04:48:09;;;;;;;6.82;2.83;;;18.20;75.90;;;;;;5039521;28;20040;-67
2023/08/26 04:50:35;;;;;;;6.70;3.20;;;18.10;75.80;;;;;;5017045;28;20029;-67
2023/08/26 04:53:02;;;;;;;9.68;3.10;;;18.10;75.80;;;;;;5033403;28;20028;-67
2023/08/26 04:55:28;;;;;;;7.63;2.88;;;18.10;75.90;;;;;;5033346;28;20040;-66
2023/08/26 04:57:53;;;;;;;7.95;3.30;;;18.10;75.90;;;;;;5060537;28;20037;-67
2023/08/26 05:00:19;;;;;;;7.40;3.10;;;18.10;75.80;;;;;;5021402;28;20022;-67
2023/08/26 05:02:45;;;;;;;7.40;3.20;;;18.10;75.70;;;;;;5066850;28;20025;-67
2023/08/26 05:05:11;;;;;;;9.25;3.05;;;18.10;75.70;;;;;;5032066;28;20026;-67
2023/08/26 05:07:36;;;;;;;7.72;3.10;;;18.10;75.60;;;;;;5031391;28;20083;-67
2023/08/26 05:10:03;;;;;;;7.35;2.70;;;18.10;75.60;;;;;;5034426;28;20541;-67
2023/08/26 05:12:31;;;;;;;6.18;2.40;;;18.00;75.50;;;;;;5033264;28;20083;-67
2023/08/26 05:14:56;;;;;;;7.90;3.08;;;18.00;75.50;;;;;;5029403;28;20026;-67
2023/08/26 05:17:23;;;;;;;6.90;3.08;;;18.10;75.50;;;;;;5021307;28;20406;-67
2023/08/26 05:19:48;;;;;;;8.68;3.13;;;18.10;75.50;;;;;;5029027;28;20021;-67
2023/08/26 05:22:14;;;;;;;9.80;3.30;;;18.10;75.50;;;;;;5028535;28;20086;-67
2023/08/26 05:24:41;;;;;;;8.48;3.08;;;18.10;75.40;;;;;;5026031;28;20112;-67
2023/08/26 05:27:06;;;;;;;8.57;3.28;;;18.10;75.40;;;;;;5042666;28;20116;-67
2023/08/26 05:29:33;;;;;;;8.63;3.40;;;18.00;75.20;;;;;;5025788;28;20537;-67
2023/08/26 05:31:59;;;;;;;7.75;2.78;;;18.00;75.20;;;;;;5028366;28;20029;-67
2023/08/26 05:34:25;;;;;;;7.28;3.35;;;18.10;75.30;;;;;;5034725;28;20037;-67
2023/08/26 05:36:51;;;;;;;5.78;2.38;;;18.00;75.20;;;;;;5044064;28;20026;-67
2023/08/26 05:39:18;;;;;;;6.53;2.40;;;18.10;75.20;;;;;;5028231;28;20025;-67
2023/08/26 05:41:45;;;;;;;6.53;2.75;;;18.10;75.10;;;;;;5026139;28;20021;-66
2023/08/26 05:44:11;;;;;;;8.65;2.60;;;18.20;75.00;;;;;;5027330;28;20026;-66
2023/08/26 05:46:37;;;;;;;7.05;2.50;;;18.20;74.90;;;;;;5028712;28;20098;-66
2023/08/26 05:49:03;;;;;;;7.03;3.03;;;18.20;74.80;;;;;;5039834;28;20030;-67
2023/08/26 05:51:29;;;;;;;5.93;2.47;;;18.20;74.70;;;;;;5025189;28;20033;-67
2023/08/26 05:53:56;;;;;;;7.25;2.63;;;18.20;74.70;;;;;;5019724;28;20026;-67
2023/08/26 05:56:22;;;;;;;8.43;2.58;;;18.30;74.60;;;;;;5032404;28;20114;-67
2023/08/26 05:58:47;;;;;;;7.00;2.72;;;18.30;74.50;;;;;;5032774;28;20405;-67
2023/08/26 06:01:13;;;;;;;6.68;2.53;;;18.30;74.40;;;;;;5040329;28;20036;-66
2023/08/26 06:03:39;;;;;;;6.22;2.55;;;18.30;74.40;;;;;;5036665;28;20096;-67
2023/08/26 06:06:05;;;;;;;5.82;2.55;;;18.30;74.30;;;;;;5041601;28;20453;-66
2023/08/26 06:08:31;;;;;;;6.18;2.53;;;18.40;74.40;;;;;;5036202;28;20037;-67
2023/08/26 06:10:58;;;;;;;5.25;2.35;;;18.40;74.30;;;;;;5010440;28;20029;-66
2023/08/26 06:13:24;;;;;;;7.35;2.70;;;18.40;74.30;;;;;;5041355;28;20024;-66
2023/08/26 06:15:54;;;;;;;6.20;2.40;;;18.40;74.20;;;;;;5038045;28;20108;-66
2023/08/26 06:18:20;;;;;;;8.40;2.80;;;18.50;73.90;;;;;;5028752;28;20025;-65
2023/08/26 06:20:49;;;;;;;6.68;2.88;;;18.70;73.80;;;;;;5024137;28;20345;-67
2023/08/26 06:23:14;;;;;;;6.78;2.20;;;18.70;73.30;;;;;;5041258;28;20041;-66
2023/08/26 06:25:54;;;;;;;6.28;2.53;;;18.90;73.10;;;;;;5030227;28;20056;-65
2023/08/26 06:28:21;;;;;;;6.75;2.53;;;19.00;72.80;;;;;;5030121;28;20454;-66
2023/08/26 06:30:47;;;;;;;6.18;2.20;;;19.30;72.60;;;;;;5044740;28;20359;-66
2023/08/26 06:33:13;;;;;;;5.72;2.50;;;19.60;71.80;;;;;;5031214;28;20035;-65
2023/08/26 06:35:40;;;;;;;5.95;2.28;;;19.90;71.30;;;;;;5043766;28;20489;-65
2023/08/26 06:38:07;;;;;;;9.30;2.90;;;20.00;70.80;;;;;;5030536;28;20369;-65
2023/08/26 06:40:34;;;;;;;5.30;2.47;;;20.10;70.60;;;;;;5027364;28;20029;-65
2023/08/26 06:43:02;;;;;;;5.65;2.75;;;20.20;70.30;;;;;;5029349;28;20472;-65
2023/08/26 06:45:28;;;;;;;5.75;2.40;;;20.20;70.10;;;;;;5028767;28;20116;-66
2023/08/26 06:47:54;;;;;;;5.50;2.35;;;20.30;69.90;;;;;;5059213;28;20036;-66
2023/08/26 06:50:21;;;;;;;6.72;2.58;;;20.30;69.60;;;;;;5027520;28;20107;-66
2023/08/26 06:52:47;;;;;;;6.95;2.47;;;20.40;69.50;;;;;;5030221;28;20189;-66
2023/08/26 06:55:13;;;;;;;8.50;2.60;;;20.50;69.20;;;;;;5028667;28;20094;-66
2023/08/26 06:57:38;;;;;;;7.55;2.63;;;20.60;69.00;;;;;;5028863;28;20030;-66
2023/08/26 07:00:05;;;;;;;6.85;2.42;;;20.60;68.70;;;;;;5036644;28;20443;-67
2023/08/26 07:02:31;;;;;;;6.28;2.30;;;20.60;69.20;;;;;;5034818;28;20362;-67
2023/08/26 07:04:57;;;;;;;6.85;2.70;;;20.60;68.40;;;;;;5036414;28;20025;-67
2023/08/26 07:07:22;;;;;;;8.13;2.80;;;20.60;68.20;;;;;;5036778;28;20348;-67
2023/08/26 07:09:48;;;;;;;5.53;2.58;;;20.70;68.40;;;;;;5034990;28;20128;-67
2023/08/26 07:12:14;;;;;;;8.20;2.88;;;20.70;68.40;;;;;;5028943;28;20057;-67
2023/08/26 07:14:40;;;;;;;6.00;2.47;;;20.80;68.10;;;;;;5030172;28;20036;-67
2023/08/26 07:17:06;;;;;;;5.53;2.75;;;20.90;67.80;;;;;;5036654;28;20033;-67
2023/08/26 07:19:32;;;;;;;9.45;3.08;;;21.00;67.60;;;;;;5036712;28;20454;-67
2023/08/26 07:21:57;;;;;;;7.20;2.47;;;21.20;67.20;;;;;;5034301;28;20029;-67
2023/08/26 07:24:23;;;;;;;8.07;2.13;;;21.30;66.80;;;;;;5036347;28;20037;-67
2023/08/26 07:26:49;;;;;;;5.90;2.60;;;21.40;66.50;;;;;;5068467;28;20026;-67
2023/08/26 07:29:15;;;;;;;6.75;2.67;;;21.40;66.20;;;;;;5032885;28;20113;-67
2023/08/26 07:31:41;;;;;;;7.38;2.80;;;21.50;66.00;;;;;;5024757;28;20319;-67
2023/08/26 07:34:08;;;;;;;8.13;2.70;;;21.60;65.80;;;;;;5034930;28;20048;-67
2023/08/26 07:36:33;;;;;;;7.80;2.60;;;21.70;65.40;;;;;;5036324;28;20144;-67
2023/08/26 07:38:59;;;;;;;6.70;2.38;;;21.80;65.10;;;;;;5051497;28;20021;-67
2023/08/26 07:41:25;;;;;;;6.53;2.40;;;21.90;64.70;;;;;;5036435;28;20401;-67
2023/08/26 07:43:51;;;;;;;6.55;2.13;;;22.10;64.30;;;;;;5033274;28;20029;-68
2023/08/26 07:46:18;;;;;;;5.47;2.30;;;22.20;63.90;;;;;;5036056;28;20091;-67
2023/08/26 07:48:45;;;;;;;6.25;2.15;;;22.30;63.80;;;;;;5035889;28;20104;-67
2023/08/26 07:51:11;;;;;;;6.82;2.15;;;22.50;63.40;;;;;;5035840;28;20037;-67
2023/08/26 07:53:37;;;;;;;7.25;2.05;;;22.60;63.10;;;;;;5033023;28;20040;-68
2023/08/26 07:56:03;;;;;;;5.90;2.20;;;22.70;63.00;;;;;;5036070;28;20191;-67
2023/08/26 07:58:28;;;;;;;5.90;2.00;;;22.70;62.90;;;;;;5035745;28;20025;-67
2023/08/26 08:00:54;;;;;;;4.95;2.30;;;22.80;62.80;;;;;;5034837;28;20453;-67
2023/08/26 08:03:20;;;;;;;8.32;2.13;;;22.90;62.50;;;;;;5034479;28;20049;-67
2023/08/26 08:05:45;;;;;;;5.82;2.10;;;23.10;62.20;;;;;;5035647;28;20108;-67
2023/08/26 08:08:11;;;;;;;5.13;1.80;;;23.10;61.90;;;;;;5035455;28;20061;-68
2023/08/26 08:10:37;;;;;;;8.00;2.50;;;23.00;62.10;;;;;;5035654;28;20036;-68
2023/08/26 08:13:04;;;;;;;5.70;1.83;;;22.90;62.50;;;;;;5034270;28;20029;-67
2023/08/26 08:15:30;;;;;;;6.10;1.98;;;22.70;62.90;;;;;;5037471;28;20123;-68
2023/08/26 08:17:55;;;;;;;10.90;2.45;;;22.60;63.10;;;;;;5035291;28;20423;-67
2023/08/26 08:20:21;;;;;;;6.07;2.20;;;22.50;62.90;;;;;;5035249;28;20022;-67
2023/08/26 08:22:47;;;;;;;6.72;2.30;;;22.60;62.70;;;;;;5050368;28;20025;-67
2023/08/26 08:25:13;;;;;;;8.90;2.40;;;22.70;62.40;;;;;;5033608;28;20132;-67
2023/08/26 08:27:40;;;;;;;7.55;2.45;;;22.60;63.00;;;;;;5035465;28;20044;-68
2023/08/26 08:30:07;;;;;;;6.78;1.98;;;22.80;62.10;;;;;;5024707;28;20465;-67
2023/08/26 08:32:33;;;;;;;5.30;2.22;;;23.00;61.90;;;;;;5032080;28;20033;-68
2023/08/26 08:35:03;;;;;;;5.80;1.92;;;22.90;62.00;;;;;;5033847;28;20075;-67
2023/08/26 08:37:29;;;;;;;6.00;1.80;;;22.80;62.00;;;;;;5035203;28;20044;-68
2023/08/26 08:39:55;;;;;;;6.00;1.90;;;22.90;62.00;;;;;;5034166;28;20045;-67
2023/08/26 08:42:22;;;;;;;8.93;2.40;;;23.10;61.60;;;;;;5035246;28;20308;-67
2023/08/26 08:44:48;;;;;;;5.95;2.30;;;23.20;61.20;;;;;;5015863;28;20060;-67
2023/08/26 08:47:15;;;;;;;4.68;1.90;;;23.40;61.00;;;;;;5034730;28;20068;-67
2023/08/26 08:49:42;;;;;;;6.32;2.10;;;23.60;60.80;;;;;;5017208;28;20053;-67
2023/08/26 08:52:09;;;;;;;4.97;1.83;;;23.70;60.20;;;;;;5034978;28;20037;-67
2023/08/26 08:54:35;;;;;;;7.22;2.13;;;23.70;59.90;;;;;;5050021;28;20094;-67
2023/08/26 08:57:06;;;;;;;6.20;1.92;;;23.70;59.90;;;;;;5032789;28;20037;-67
2023/08/26 08:59:35;;;;;;;6.25;1.88;;;23.60;60.00;;;;;;5034522;28;20044;-67
2023/08/26 09:02:03;;;;;;;9.32;1.90;;;23.60;59.90;;;;;;5034879;28;20040;-67
2023/08/26 09:04:29;;;;;;;6.68;1.90;;;23.60;59.80;;;;;;5034734;28;20029;-67
2023/08/26 09:06:55;;;;;;;5.88;1.80;;;23.60;59.70;;;;;;5033122;28;20029;-67
2023/08/26 09:09:21;;;;;;;4.32;1.52;;;23.80;59.50;;;;;;5034307;28;20049;-68
2023/08/26 09:11:48;;;;;;;5.43;1.88;;;23.90;59.00;;;;;;5034521;28;20037;-67
2023/08/26 09:14:14;;;;;;;5.50;1.90;;;23.80;59.20;;;;;;5033619;28;20350;-67
2023/08/26 09:16:42;;;;;;;5.45;2.25;;;23.90;59.10;;;;;;5032246;28;20038;-68
2023/08/26 09:19:11;;;;;;;4.20;1.58;;;24.00;58.70;;;;;;5028644;28;20031;-68
2023/08/26 09:21:46;;;;;;;4.32;1.67;;;24.20;58.50;;;;;;5034543;28;20025;-68
2023/08/26 09:24:18;;;;;;;5.35;1.90;;;24.30;58.10;;;;;;5034413;28;20018;-68
2023/08/26 09:26:58;;;;;;;6.68;1.67;;;24.50;58.00;;;;;;5032185;28;20469;-67
2023/08/26 09:29:25;;;;;;;5.60;1.87;;;24.50;57.70;;;;;;5028656;28;20030;-68
2023/08/26 09:31:55;;;;;;;6.07;2.20;;;24.50;57.80;;;;;;5024307;28;20112;-68
2023/08/26 09:34:28;;;;;;;7.55;1.92;;;24.60;57.60;;;;;;5032407;28;20087;-69
2023/08/26 09:36:54;;;;;;;5.38;1.80;;;24.60;57.80;;;;;;5014708;28;20053;-68
2023/08/26 09:39:21;;;;;;;3.67;1.50;;;24.70;57.80;;;;;;5033896;28;20040;-68
2023/08/26 09:41:47;;;;;;;4.13;1.50;;;25.00;57.40;;;;;;5034289;28;20026;-68
2023/08/26 09:44:16;;;;;;;5.53;1.58;;;25.10;56.70;;;;;;5034204;28;20363;-68
2023/08/26 09:46:43;;;;;;;5.00;1.70;;;25.30;56.40;;;;;;5034265;28;20140;-68
2023/08/26 09:49:13;;;;;;;7.20;1.90;;;25.40;56.20;;;;;;5031747;28;20036;-68
2023/08/26 09:51:45;;;;;;;5.00;1.45;;;25.40;56.20;;;;;;5032492;28;20402;-68
2023/08/26 09:54:14;;;;;;;4.15;1.48;;;25.30;56.30;;;;;;5026298;28;20357;-68
2023/08/26 09:56:40;;;;;;;4.63;1.30;;;25.10;56.40;;;;;;5033081;28;20034;-68
2023/08/26 09:59:06;;;;;;;7.38;1.60;;;24.70;56.40;;;;;;5031003;28;20494;-68
2023/08/26 10:01:33;;;;;;;5.30;1.55;;;24.30;56.90;;;;;;5031210;28;20017;-68
2023/08/26 10:04:08;;;;;;;5.45;2.10;;;24.00;57.80;;;;;;5016418;28;20454;-68
2023/08/26 10:06:52;;;;;;;4.72;1.60;;;23.70;58.60;;;;;;5032763;28;20033;-68
2023/08/26 10:09:44;;;;;;;6.40;1.80;;;23.40;58.90;;;;;;5025806;28;20069;-68
2023/08/26 10:12:21;;;;;;;6.22;1.40;;;23.20;59.40;;;;;;5022134;28;20425;-68
2023/08/26 10:14:50;;;;;;;5.38;1.77;;;23.00;59.90;;;;;;5034045;28;20048;-68
2023/08/26 10:17:20;;;;;;;5.70;1.48;;;22.90;60.10;;;;;;5066018;28;20041;-68
2023/08/26 10:19:47;;;;;;;4.18;1.58;;;23.00;60.00;;;;;;5028084;28;20049;-68
2023/08/26 10:22:14;;;;;;;5.55;1.50;;;23.20;59.60;;;;;;5033108;28;20049;-68
2023/08/26 10:24:40;;;;;;;4.05;1.38;;;23.50;59.50;;;;;;5033039;28;20093;-67
2023/08/26 10:27:07;;;;;;;5.38;1.33;;;23.80;58.80;;;;;;5034051;28;20033;-68
2023/08/26 10:29:35;;;;;;;3.28;1.23;;;24.00;58.10;;;;;;5031562;28;20459;-68
2023/08/26 10:32:18;;;;;;;3.70;1.48;;;24.00;57.90;;;;;;5032565;28;20434;-68
2023/08/26 10:34:58;;;;;;;6.05;1.33;;;24.30;57.40;;;;;;5032543;28;20091;-68
2023/08/26 10:37:28;;;;;;;4.40;1.27;;;24.60;56.90;;;;;;5033403;28;20033;-68
2023/08/26 10:39:55;;;;;;;5.72;1.30;;;24.90;56.60;;;;;;5032002;28;20072;-68
2023/08/26 10:42:22;;;;;;;2.85;1.13;;;25.00;56.20;;;;;;5033699;28;20021;-68
2023/08/26 10:44:53;;;;;;;4.60;1.55;;;24.70;56.20;;;;;;5034903;28;20033;-68
2023/08/26 10:47:38;;;;;;;4.28;1.40;;;24.50;56.50;;;;;;5037392;28;20030;-68
2023/08/26 10:50:26;;;;;;;3.30;1.17;;;24.50;56.60;;;;;;5034378;28;20087;-68
2023/08/26 10:52:54;;;;;;;3.45;1.08;;;24.40;56.30;;;;;;5067866;28;20029;-68
2023/08/26 10:55:28;;;;;;;3.47;1.50;;;24.10;56.70;;;;;;5037494;28;20108;-68
2023/08/26 10:58:01;;;;;;;3.92;1.38;;;23.80;57.10;;;;;;5032907;28;20046;-68
2023/08/26 11:00:27;;;;;;;5.95;1.60;;;23.60;57.50;;;;;;5035282;28;20041;-68
2023/08/26 11:02:54;;;;;;;4.40;1.40;;;23.40;57.70;;;;;;5036881;28;20022;-68
2023/08/26 11:05:21;;;;;;;3.67;1.30;;;23.20;58.40;;;;;;5036395;28;20026;-68
2023/08/26 11:07:47;;;;;;;3.38;1.40;;;23.10;58.60;;;;;;5036700;28;20116;-68
2023/08/26 11:10:31;;;;;;;4.55;1.50;;;23.40;59.20;;;;;;5034048;28;20120;-68
2023/08/26 11:12:57;;;;;;;5.95;1.55;;;23.70;58.30;;;;;;5036931;28;20350;-68
2023/08/26 11:15:23;;;;;;;3.80;1.33;;;24.10;57.70;;;;;;5036167;28;20050;-68
2023/08/26 11:17:49;;;;;;;5.43;1.70;;;24.30;57.10;;;;;;5035243;28;20044;-67
2023/08/26 11:20:18;;;;;;;4.30;1.60;;;24.30;57.10;;;;;;5034185;28;20037;-68
2023/08/26 11:22:45;;;;;;;4.55;1.30;;;24.40;56.90;;;;;;5034507;28;20022;-67
2023/08/26 11:25:17;;;;;;;3.63;1.65;;;24.30;56.90;;;;;;5036097;28;20032;-68
2023/08/26 11:27:43;;;;;;;3.30;1.30;;;24.20;56.90;;;;;;5035040;28;20033;-68
2023/08/26 11:30:10;;;;;;;2.80;1.30;;;24.30;56.90;;;;;;5024188;28;20038;-68
2023/08/26 11:32:37;;;;;;;2.10;0.93;;;24.30;56.70;;;;;;5031411;28;20454;-68
2023/08/26 11:35:12;;;;;;;4.38;1.30;;;24.30;56.60;;;;;;5035764;28;20080;-68
2023/08/26 11:37:42;;;;;;;3.38;1.00;;;24.50;56.30;;;;;;5036498;28;20359;-68
2023/08/26 11:40:09;;;;;;;3.58;1.23;;;24.60;55.80;;;;;;5035351;28;20030;-68
2023/08/26 11:42:35;;;;;;;5.68;1.17;;;24.80;55.60;;;;;;5033279;28;20112;-68
2023/08/26 11:45:02;;;;;;;2.80;1.23;;;24.90;55.30;;;;;;5036265;28;20104;-68
2023/08/26 11:47:28;;;;;;;2.80;1.10;;;24.80;55.00;;;;;;5036389;28;20080;-68
2023/08/26 11:49:57;;;;;;;3.10;1.02;;;24.80;55.10;;;;;;5034730;28;20450;-68
2023/08/26 11:52:30;;;;;;;3.85;1.42;;;24.90;55.00;;;;;;5034921;28;20025;-68
2023/08/26 11:54:55;;;;;;;3.63;1.20;;;25.00;55.10;;;;;;5035926;28;20346;-68
2023/08/26 11:57:23;;;;;;;3.05;1.10;;;24.90;54.90;;;;;;5034956;28;20040;-68
2023/08/26 11:59:49;;;;;;;3.08;1.23;;;24.80;54.80;;;;;;5035557;28;20083;-68
2023/08/26 12:02:26;;;;;;;2.50;1.20;;;24.80;54.60;;;;;;5034777;28;20022;-68
2023/08/26 12:04:59;;;;;;;2.45;0.90;;;24.80;54.40;;;;;;5067836;28;20371;-68
2023/08/26 12:07:26;;;;;;;2.33;1.00;;;24.90;54.40;;;;;;5034445;28;20025;-68
2023/08/26 12:09:52;;;;;;;3.40;1.00;;;24.80;54.40;;;;;;5034247;28;20045;-68
2023/08/26 12:12:22;;;;;;;3.60;1.10;;;24.80;54.30;;;;;;5034157;28;20052;-68
2023/08/26 12:14:48;;;;;;;2.50;1.17;;;24.90;54.20;;;;;;5035478;28;20033;-68
2023/08/26 12:17:15;;;;;;;2.88;1.15;;;24.90;53.90;;;;;;5035394;28;20033;-68
2023/08/26 12:19:42;;;;;;;2.97;1.02;;;25.00;54.00;;;;;;5034664;28;20077;-68
2023/08/26 12:22:09;;;;;;;1.80;1.00;;;24.90;53.90;;;;;;5034515;28;20163;-68
2023/08/26 12:24:39;;;;;;;2.55;1.00;;;24.90;53.90;;;;;;5033444;28;20395;-68
2023/08/26 12:27:09;;;;;;;1.83;0.95;;;24.90;53.90;;;;;;5031874;28;20026;-68
2023/08/26 12:29:35;;;;;;;3.22;1.00;;;24.90;54.00;;;;;;5029142;28;20423;-68
2023/08/26 12:32:01;;;;;;;2.25;0.88;;;24.90;53.90;;;;;;5027049;28;20407;-68
2023/08/26 12:34:27;;;;;;;1.73;0.90;;;24.90;53.80;;;;;;5016576;28;20077;-68
2023/08/26 12:36:52;;;;;;;3.33;0.98;;;24.80;53.60;;;;;;5034860;28;20119;-68
2023/08/26 12:39:18;;;;;;;2.63;0.93;;;24.60;53.70;;;;;;5035168;28;20049;-68
2023/08/26 12:41:44;;;;;;;4.10;1.25;;;24.40;54.00;;;;;;5034220;28;20029;-68
2023/08/26 12:44:10;;;;;;;3.88;1.05;;;24.20;54.00;;;;;;5033763;28;20037;-68
2023/08/26 12:46:36;;;;;;;2.90;1.15;;;24.20;54.30;;;;;;5034106;28;20065;-68
2023/08/26 12:49:02;;;;;;;3.25;1.10;;;24.20;54.40;;;;;;5027509;28;20474;-68